Time;durP1;ratioP1;P1;durP2;ratioP2;P2;SDS_P1;SDS_P2;PMS_P1;PMS_P2;Temp;Humidity;BMP_temperature;BMP_pressure;BME280_temperature;BME280_humidity;BME280_pressure;Samples;Min_cycle;Max_cycle;Signal;HPM_P1;HPM_P2
2023/05/05 00:00:09;;;;;;;13.53;5.00;;;8.50;99.90;;;;;;4437156;28;655770;-74
2023/05/05 00:02:58;;;;;;;13.23;5.67;;;8.40;1.00;;;;;;4415456;28;656954;-74
2023/05/05 00:05:46;;;;;;;11.97;5.17;;;8.40;1.00;;;;;;4436477;28;656255;-74
2023/05/05 00:08:33;;;;;;;12.83;5.20;;;8.30;99.90;;;;;;4445065;28;656304;-74
2023/05/05 00:11:20;;;;;;;16.57;5.00;;;8.30;99.90;;;;;;4426723;28;656770;-74
2023/05/05 00:14:07;;;;;;;10.67;5.43;;;8.30;1.00;;;;;;4436215;28;657488;-74
2023/05/05 00:16:54;;;;;;;10.13;4.60;;;8.30;99.90;;;;;;4447112;28;655551;-74
2023/05/05 00:19:43;;;;;;;9.63;4.50;;;8.30;1.00;;;;;;4423988;28;657090;-74
2023/05/05 00:22:30;;;;;;;11.93;5.07;;;8.30;1.00;;;;;;4425426;28;654314;-74
2023/05/05 00:25:17;;;;;;;13.20;5.03;;;8.30;1.00;;;;;;4444070;28;657377;-74
2023/05/05 00:28:05;;;;;;;11.30;5.53;;;8.20;1.00;;;;;;4438547;28;656590;-74
2023/05/05 00:30:53;;;;;;;13.07;5.70;;;8.20;1.00;;;;;;4435747;28;657123;-74
2023/05/05 00:33:40;;;;;;;8.93;4.97;;;8.20;1.00;;;;;;4435009;28;655719;-74
2023/05/05 00:36:29;;;;;;;11.50;5.33;;;8.20;1.00;;;;;;4444494;28;655904;-74
2023/05/05 00:39:16;;;;;;;12.87;5.07;;;8.10;99.90;;;;;;4425484;28;655327;-74
2023/05/05 00:42:03;;;;;;;10.43;4.90;;;8.10;1.00;;;;;;4440562;28;657121;-74
2023/05/05 00:44:51;;;;;;;11.23;4.67;;;8.00;1.00;;;;;;4422986;28;655792;-74
2023/05/05 00:47:38;;;;;;;13.03;5.23;;;8.00;99.90;;;;;;4445606;28;656586;-74
2023/05/05 00:50:26;;;;;;;13.47;4.73;;;8.00;1.00;;;;;;4414788;28;656890;-74
2023/05/05 00:53:14;;;;;;;11.97;5.03;;;7.90;1.00;;;;;;4444779;28;656784;-74
2023/05/05 00:56:02;;;;;;;17.43;5.17;;;7.90;19.10;;;;;;4422856;28;656293;-74
2023/05/05 00:58:49;;;;;;;12.63;5.07;;;7.90;1.00;;;;;;4437897;28;657380;-74
2023/05/05 01:01:36;;;;;;;11.40;4.50;;;7.80;1.00;;;;;;4412453;28;656608;-75
2023/05/05 01:04:24;;;;;;;10.80;4.70;;;7.80;1.00;;;;;;4440188;28;657155;-74
2023/05/05 01:07:13;;;;;;;9.13;4.50;;;7.80;1.00;;;;;;4423037;28;655649;-74
2023/05/05 01:10:08;;;;;;;9.90;4.37;;;7.80;1.00;;;;;;4422840;28;654373;-74
2023/05/05 01:13:02;;;;;;;10.40;4.13;;;7.70;1.00;;;;;;4433044;28;654402;-74
2023/05/05 01:15:50;;;;;;;10.30;4.17;;;7.70;1.00;;;;;;4418991;28;655834;-74
2023/05/05 01:18:41;;;;;;;9.10;3.83;;;7.70;1.00;;;;;;4425532;28;656334;-74
2023/05/05 01:21:30;;;;;;;10.47;4.40;;;7.70;1.00;;;;;;4416012;28;655492;-74
2023/05/05 01:24:42;;;;;;;9.90;4.27;;;7.70;1.00;;;;;;4423130;28;656642;-74
2023/05/05 01:27:59;;;;;;;10.40;4.83;;;7.70;1.00;;;;;;4443663;28;654721;-74
2023/05/05 01:31:06;;;;;;;13.80;4.00;;;7.60;1.00;;;;;;4417734;28;655394;-75
2023/05/05 01:33:58;;;;;;;10.67;4.27;;;7.60;99.90;;;;;;4423514;28;655375;-74
2023/05/05 01:36:46;;;;;;;9.33;4.00;;;7.50;1.00;;;;;;4409757;28;657123;-74
2023/05/05 01:39:33;;;;;;;10.48;3.88;;;7.40;1.00;;;;;;4445493;28;655197;-74
2023/05/05 01:42:21;;;;;;;10.83;3.57;;;7.40;1.00;;;;;;4422149;28;655825;-74
2023/05/05 01:45:09;;;;;;;8.57;3.80;;;7.30;1.00;;;;;;4442166;28;656099;-74
2023/05/05 01:47:56;;;;;;;5.90;3.30;;;7.20;99.90;;;;;;4424720;28;654776;-74
2023/05/05 01:50:45;;;;;;;6.87;3.33;;;7.10;1.00;;;;;;4443220;28;656016;-75
2023/05/05 01:53:33;;;;;;;10.77;3.40;;;7.10;1.00;;;;;;4419965;28;654872;-74
2023/05/05 01:56:20;;;;;;;6.90;3.70;;;7.00;1.00;;;;;;4423205;28;655871;-74
2023/05/05 01:59:08;;;;;;;8.73;3.60;;;6.90;1.00;;;;;;4442591;28;656344;-75
2023/05/05 02:01:56;;;;;;;7.67;3.60;;;6.90;1.00;;;;;;4412765;28;654679;-75
2023/05/05 02:04:43;;;;;;;6.03;3.20;;;6.80;1.00;;;;;;4446284;28;655068;-74
2023/05/05 02:07:32;;;;;;;7.23;3.80;;;6.70;1.00;;;;;;4423749;28;654694;-75
2023/05/05 02:10:19;;;;;;;7.80;3.30;;;6.70;99.90;;;;;;4446900;28;654346;-74
2023/05/05 02:13:06;;;;;;;7.13;3.50;;;6.70;99.90;;;;;;4413195;28;655378;-75
2023/05/05 02:15:54;;;;;;;6.20;3.33;;;6.70;99.90;;;;;;4443257;28;655395;-75
2023/05/05 02:18:41;;;;;;;7.63;3.60;;;6.70;99.90;;;;;;4422360;28;656506;-75
2023/05/05 02:21:28;;;;;;;5.93;3.47;;;6.70;99.90;;;;;;4450939;28;655982;-75
2023/05/05 02:24:17;;;;;;;7.00;3.22;;;6.70;1.00;;;;;;4419878;28;655619;-75
2023/05/05 02:27:04;;;;;;;7.93;3.80;;;6.70;1.00;;;;;;4442059;28;654282;-75
2023/05/05 02:29:52;;;;;;;5.43;3.30;;;6.80;1.00;;;;;;4417466;28;654965;-75
2023/05/05 02:32:42;;;;;;;5.87;3.23;;;6.80;99.90;;;;;;4436448;28;654396;-75
2023/05/05 02:35:33;;;;;;;12.67;3.77;;;6.80;99.90;;;;;;4436367;28;656273;-75
2023/05/05 02:38:21;;;;;;;7.17;3.23;;;6.80;99.90;;;;;;4419431;28;656736;-75
2023/05/05 02:41:11;;;;;;;8.13;3.80;;;6.80;99.90;;;;;;4438421;28;656587;-75
2023/05/05 02:43:58;;;;;;;7.33;3.40;;;6.80;1.00;;;;;;4418680;28;656676;-75
2023/05/05 02:46:45;;;;;;;7.00;3.57;;;6.80;1.00;;;;;;4416709;28;653863;-74
2023/05/05 02:49:33;;;;;;;8.43;3.80;;;6.80;99.90;;;;;;4440204;28;655712;-75
2023/05/05 02:52:20;;;;;;;10.87;4.20;;;6.80;1.00;;;;;;4432352;28;655462;-75
2023/05/05 02:55:08;;;;;;;8.27;3.90;;;6.80;1.00;;;;;;4447806;28;656367;-75
2023/05/05 02:58:03;;;;;;;7.60;4.00;;;6.80;1.00;;;;;;4428995;28;654444;-75
2023/05/05 03:00:52;;;;;;;10.75;3.50;;;6.80;1.00;;;;;;4403497;28;655134;-75
2023/05/05 03:03:43;;;;;;;8.07;4.10;;;6.80;99.90;;;;;;4442411;28;655175;-75
2023/05/05 03:06:31;;;;;;;10.10;4.10;;;6.90;33.10;;;;;;4394367;28;656776;-74
2023/05/05 03:09:22;;;;;;;5.43;3.40;;;6.90;1.00;;;;;;4445321;28;657102;-74
2023/05/05 03:12:11;;;;;;;8.93;3.90;;;6.80;1.00;;;;;;4420855;28;654406;-74
2023/05/05 03:14:59;;;;;;;6.10;3.70;;;6.70;1.00;;;;;;4449520;28;654851;-76
2023/05/05 03:17:46;;;;;;;10.83;4.33;;;6.70;99.90;;;;;;4417437;28;654573;-74
2023/05/05 03:20:34;;;;;;;9.77;4.07;;;6.60;48.20;;;;;;4310727;28;657172;-74
2023/05/05 03:23:21;;;;;;;9.70;3.93;;;6.60;99.90;;;;;;4278751;28;655595;-74
2023/05/05 03:26:08;;;;;;;15.37;4.40;;;6.50;1.00;;;;;;4313848;28;655790;-74
2023/05/05 03:28:56;;;;;;;6.37;4.10;;;6.50;1.00;;;;;;4422449;28;655779;-76
2023/05/05 03:31:44;;;;;;;9.40;4.60;;;6.50;1.00;;;;;;4448484;28;654782;-76
2023/05/05 03:34:31;;;;;;;6.57;3.83;;;6.50;99.90;;;;;;4423740;28;654082;-75
2023/05/05 03:37:19;;;;;;;10.73;4.77;;;6.50;19.90;;;;;;4446223;28;656438;-75
2023/05/05 03:40:08;;;;;;;12.03;5.47;;;6.50;99.90;;;;;;4413799;28;656696;-76
2023/05/05 03:42:55;;;;;;;10.47;4.90;;;6.60;78.60;;;;;;4431492;28;657055;-75
2023/05/05 03:45:43;;;;;;;13.27;5.07;;;6.60;99.90;;;;;;4441308;28;657330;-76
2023/05/05 03:48:32;;;;;;;10.90;4.60;;;6.60;99.90;;;;;;4436423;28;657789;-75
2023/05/05 03:51:20;;;;;;;8.30;4.50;;;6.70;99.90;;;;;;4436312;28;656403;-76
2023/05/05 03:54:07;;;;;;;9.03;4.50;;;6.70;1.00;;;;;;4446053;28;656455;-76
2023/05/05 03:56:55;;;;;;;13.17;6.17;;;6.70;99.90;;;;;;4444504;28;655392;-76
2023/05/05 03:59:42;;;;;;;13.87;5.43;;;6.80;1.00;;;;;;4420303;28;657963;-76
2023/05/05 04:02:29;;;;;;;11.25;5.22;;;6.80;50.00;;;;;;4448804;28;656140;-76
2023/05/05 04:05:18;;;;;;;9.67;4.50;;;6.90;99.90;;;;;;4414894;28;656588;-76
2023/05/05 04:08:05;;;;;;;11.03;4.90;;;7.00;99.90;;;;;;4423393;28;656310;-76
2023/05/05 04:10:53;;;;;;;12.13;4.67;;;7.10;99.90;;;;;;4444357;28;657731;-75
2023/05/05 04:13:40;;;;;;;10.63;5.40;;;7.20;99.90;;;;;;4425909;28;656714;-75
2023/05/05 04:16:27;;;;;;;9.93;5.00;;;7.30;99.90;;;;;;4446650;28;657275;-75
2023/05/05 04:19:14;;;;;;;10.80;5.20;;;7.40;1.00;;;;;;4445167;28;655053;-75
2023/05/05 04:22:03;;;;;;;10.53;4.90;;;7.60;1.00;;;;;;4428821;28;655541;-76
2023/05/05 04:24:50;;;;;;;13.30;5.45;;;7.70;99.90;;;;;;4427781;28;655829;-76
2023/05/05 04:27:37;;;;;;;10.53;4.90;;;7.90;99.90;;;;;;4448950;28;657589;-76
2023/05/05 04:30:25;;;;;;;14.53;5.53;;;8.00;1.00;;;;;;4445380;28;656424;-76
2023/05/05 04:33:12;;;;;;;11.07;5.50;;;8.20;1.00;;;;;;4445268;28;656170;-76
2023/05/05 04:36:00;;;;;;;10.50;5.13;;;8.20;1.00;;;;;;4447674;28;654552;-75
2023/05/05 04:38:49;;;;;;;13.67;5.43;;;8.40;1.00;;;;;;4444866;28;655737;-76
2023/05/05 04:41:36;;;;;;;11.20;5.00;;;8.60;99.90;;;;;;4422428;28;655767;-75
2023/05/05 04:44:23;;;;;;;9.03;4.97;;;8.70;99.90;;;;;;4442644;28;657093;-75
2023/05/05 04:47:10;;;;;;;12.63;5.00;;;8.80;1.00;;;;;;4423854;28;656342;-75
2023/05/05 04:49:57;;;;;;;10.50;5.07;;;9.00;1.00;;;;;;4445289;28;656913;-75
2023/05/05 04:52:45;;;;;;;10.43;4.90;;;9.20;1.00;;;;;;4434934;28;656279;-75
2023/05/05 04:55:34;;;;;;;7.73;4.50;;;9.40;99.90;;;;;;4445067;28;655850;-75
2023/05/05 04:58:21;;;;;;;8.83;4.90;;;9.50;1.00;;;;;;4425910;28;655382;-75
2023/05/05 05:01:08;;;;;;;9.97;4.80;;;9.70;99.90;;;;;;4437586;28;654680;-75
2023/05/05 05:03:56;;;;;;;9.40;5.17;;;9.90;99.90;;;;;;4421231;28;656016;-75
2023/05/05 05:06:43;;;;;;;9.50;4.57;;;10.00;1.00;;;;;;4445422;28;656219;-75
2023/05/05 05:09:30;;;;;;;7.88;4.10;;;10.20;99.90;;;;;;4429124;28;656108;-75
2023/05/05 05:12:19;;;;;;;12.70;5.20;;;10.40;1.00;;;;;;4443986;28;657869;-75
2023/05/05 05:15:08;;;;;;;12.67;4.90;;;10.60;1.00;;;;;;4422702;28;656545;-75
2023/05/05 05:17:55;;;;;;;11.02;6.18;;;10.70;1.00;;;;;;4415907;28;656901;-75
2023/05/05 05:20:43;;;;;;;11.73;6.13;;;10.90;1.00;;;;;;4439561;28;657659;-75
2023/05/05 05:23:30;;;;;;;11.37;5.43;;;10.90;99.90;;;;;;4431925;28;657390;-76
2023/05/05 05:26:17;;;;;;;8.57;5.23;;;11.10;99.90;;;;;;4444796;28;658827;-75
2023/05/05 05:29:07;;;;;;;11.57;5.43;;;11.20;99.90;;;;;;4438324;28;656511;-76
2023/05/05 05:31:54;;;;;;;10.23;4.83;;;11.30;99.90;;;;;;4441360;28;658048;-75
2023/05/05 05:34:41;;;;;;;9.33;5.20;;;11.30;1.00;;;;;;4414928;28;658017;-77
2023/05/05 05:37:29;;;;;;;6.43;3.37;;;11.30;1.00;;;;;;4438942;28;656988;-74
2023/05/05 05:40:17;;;;;;;9.87;3.93;;;11.30;1.00;;;;;;4421172;28;655772;-74
2023/05/05 05:43:04;;;;;;;6.60;3.47;;;11.30;1.00;;;;;;4445397;28;655517;-75
2023/05/05 05:45:53;;;;;;;7.18;4.35;;;11.40;56.80;;;;;;4420289;28;655597;-75
2023/05/05 05:48:40;;;;;;;11.83;3.60;;;11.40;99.90;;;;;;4433891;28;656571;-73
2023/05/05 05:51:27;;;;;;;13.70;3.73;;;11.50;99.90;;;;;;4437399;28;658609;-73
2023/05/05 05:54:15;;;;;;;10.47;3.60;;;11.60;99.90;;;;;;4439705;28;658949;-74
2023/05/05 05:57:03;;;;;;;7.90;3.50;;;11.80;99.90;;;;;;4445728;28;657640;-74
2023/05/05 05:59:50;;;;;;;10.27;3.30;;;11.90;1.00;;;;;;4430389;28;656873;-72
2023/05/05 06:02:39;;;;;;;7.37;3.80;;;12.00;1.00;;;;;;4444038;28;658342;-75
2023/05/05 06:05:26;;;;;;;10.27;3.90;;;12.10;1.00;;;;;;4424545;28;656400;-75
2023/05/05 06:08:13;;;;;;;7.40;3.53;;;12.20;99.90;;;;;;4450888;28;656845;-75
2023/05/05 06:11:00;;;;;;;8.30;3.40;;;12.30;99.90;;;;;;4416295;28;657714;-75
2023/05/05 06:13:47;;;;;;;13.50;3.50;;;12.30;99.90;;;;;;4447548;28;658131;-75
2023/05/05 06:16:35;;;;;;;6.93;3.30;;;12.50;30.90;;;;;;4426421;28;659040;-74
2023/05/05 06:19:24;;;;;;;6.97;3.60;;;12.70;1.00;;;;;;4438580;28;657525;-74
2023/05/05 06:22:11;;;;;;;7.67;3.40;;;12.80;1.00;;;;;;4425672;28;656572;-75
2023/05/05 06:24:58;;;;;;;6.97;3.57;;;12.80;1.00;;;;;;4442087;28;656804;-76
2023/05/05 06:27:45;;;;;;;8.73;3.30;;;12.90;99.90;;;;;;4421406;28;655628;-74
2023/05/05 06:30:33;;;;;;;7.07;3.37;;;13.10;1.00;;;;;;4440416;28;657862;-75
2023/05/05 06:33:20;;;;;;;8.20;3.30;;;13.30;99.90;;;;;;4435780;28;655687;-74
2023/05/05 06:36:09;;;;;;;10.57;3.27;;;13.50;1.00;;;;;;4445349;28;656799;-75
2023/05/05 06:38:56;;;;;;;12.27;3.83;;;13.70;99.90;;;;;;4425056;28;657149;-75
2023/05/05 06:41:43;;;;;;;8.93;3.10;;;13.80;1.00;;;;;;4443158;28;658247;-76
2023/05/05 06:44:33;;;;;;;5.70;2.53;;;14.00;1.00;;;;;;4425826;28;656502;-75
2023/05/05 06:47:20;;;;;;;4.80;2.90;;;14.20;99.90;;;;;;4435854;28;655110;-74
2023/05/05 06:50:08;;;;;;;4.90;3.00;;;14.20;1.00;;;;;;4436210;28;658536;-72
2023/05/05 06:52:57;;;;;;;5.53;3.00;;;14.40;99.90;;;;;;4421511;28;655420;-75
2023/05/05 06:55:45;;;;;;;6.65;2.75;;;14.60;99.90;;;;;;4441503;28;656670;-75
2023/05/05 06:58:32;;;;;;;6.80;2.90;;;14.70;1.00;;;;;;4417936;28;657954;-77
2023/05/05 07:01:19;;;;;;;4.13;2.80;;;14.70;1.00;;;;;;4434712;28;654796;-76
2023/05/05 07:04:06;;;;;;;6.17;3.00;;;14.80;1.00;;;;;;4421279;28;655517;-76
2023/05/05 07:06:54;;;;;;;4.30;2.67;;;15.00;1.00;;;;;;4439749;28;656575;-73
2023/05/05 07:09:43;;;;;;;7.53;2.80;;;15.10;99.40;;;;;;4418647;28;655206;-76
2023/05/05 07:12:31;;;;;;;5.73;2.90;;;15.20;1.00;;;;;;4409246;28;656700;-75
2023/05/05 07:15:18;;;;;;;4.30;3.13;;;15.30;1.00;;;;;;4441380;28;656781;-76
2023/05/05 07:18:05;;;;;;;4.63;2.60;;;15.40;1.00;;;;;;4418694;28;655838;-73
2023/05/05 07:20:52;;;;;;;6.77;2.80;;;15.70;1.00;;;;;;4439307;28;656245;-76
2023/05/05 07:23:40;;;;;;;6.47;2.77;;;15.90;99.50;;;;;;4444004;28;655539;-74
2023/05/05 07:26:29;;;;;;;4.83;2.77;;;15.90;99.90;;;;;;4443629;28;656536;-74
2023/05/05 07:29:16;;;;;;;4.37;2.67;;;16.00;1.00;;;;;;4420761;28;656670;-75
2023/05/05 07:32:03;;;;;;;6.40;3.47;;;16.30;1.00;;;;;;4436270;28;656033;-77
2023/05/05 07:34:50;;;;;;;7.63;3.47;;;16.30;1.00;;;;;;4422260;28;655214;-74
2023/05/05 07:37:37;;;;;;;3.77;2.60;;;16.20;1.00;;;;;;4439770;28;656773;-77
2023/05/05 07:40:25;;;;;;;5.07;2.50;;;16.50;1.00;;;;;;4441046;28;656327;-75
2023/05/05 07:43:14;;;;;;;5.17;2.70;;;16.70;99.90;;;;;;4451057;28;656284;-75
2023/05/05 07:46:01;;;;;;;4.23;2.60;;;16.90;99.90;;;;;;4417225;28;656456;-75
2023/05/05 07:48:48;;;;;;;6.60;2.90;;;17.10;52.10;;;;;;4441287;28;657468;-76
2023/05/05 07:51:36;;;;;;;5.17;2.70;;;17.20;1.00;;;;;;4424768;28;656315;-75
2023/05/05 07:54:23;;;;;;;6.97;2.90;;;17.30;1.00;;;;;;4436849;28;656329;-75
2023/05/05 07:57:10;;;;;;;5.53;2.57;;;17.20;1.00;;;;;;4426176;28;655669;-75
2023/05/05 07:59:59;;;;;;;7.23;2.97;;;17.10;1.00;;;;;;4445399;28;656129;-76
2023/05/05 08:02:47;;;;;;;4.67;2.50;;;17.40;1.00;;;;;;4422388;28;655766;-76
2023/05/05 08:05:34;;;;;;;7.07;3.20;;;17.50;99.90;;;;;;4444670;28;656109;-76
2023/05/05 08:08:23;;;;;;;6.83;2.67;;;17.80;99.90;;;;;;4426476;28;656561;-76
2023/05/05 08:11:10;;;;;;;5.43;2.40;;;17.90;12.00;;;;;;4420559;28;656566;-74
2023/05/05 08:13:58;;;;;;;7.63;2.93;;;18.00;99.90;;;;;;4446773;28;657005;-74
2023/05/05 08:16:47;;;;;;;4.13;2.47;;;18.10;1.00;;;;;;4421266;28;656552;-73
2023/05/05 08:19:34;;;;;;;5.90;2.57;;;18.30;1.00;;;;;;4437849;28;655417;-76
2023/05/05 08:22:21;;;;;;;5.87;2.80;;;18.10;99.70;;;;;;4421988;28;655573;-76
2023/05/05 08:25:09;;;;;;;6.70;2.40;;;18.30;1.00;;;;;;4434592;28;656716;-75
2023/05/05 08:27:57;;;;;;;4.43;2.67;;;18.30;99.90;;;;;;4423274;28;655609;-76
2023/05/05 08:30:44;;;;;;;7.03;2.67;;;18.30;99.90;;;;;;4441458;28;656613;-77
2023/05/05 08:33:32;;;;;;;3.37;2.33;;;18.50;1.00;;;;;;4419609;28;656751;-75
2023/05/05 08:36:20;;;;;;;13.47;2.90;;;18.40;99.90;;;;;;4439583;28;656226;-74
2023/05/05 08:39:07;;;;;;;4.17;2.20;;;18.40;1.00;;;;;;4433173;28;658190;-74
2023/05/05 08:41:55;;;;;;;6.87;2.37;;;18.50;95.50;;;;;;4439306;28;655945;-75
2023/05/05 08:44:42;;;;;;;5.17;2.40;;;18.60;99.90;;;;;;4417132;28;657791;-74
2023/05/05 08:47:30;;;;;;;4.47;2.87;;;18.80;99.90;;;;;;4440079;28;656771;-76
2023/05/05 08:50:19;;;;;;;8.33;3.27;;;19.00;99.90;;;;;;4418324;28;658172;-76
2023/05/05 08:53:09;;;;;;;6.43;2.93;;;19.30;1.00;;;;;;4422207;28;656347;-77
2023/05/05 08:55:56;;;;;;;4.53;3.17;;;19.30;99.90;;;;;;4421757;28;655839;-76
2023/05/05 08:58:43;;;;;;;7.53;3.27;;;19.40;99.90;;;;;;4441148;28;657559;-76
2023/05/05 09:01:31;;;;;;;5.03;3.20;;;19.50;99.90;;;;;;4418881;28;657254;-76
2023/05/05 09:04:18;;;;;;;10.30;3.47;;;19.80;99.90;;;;;;4440404;28;656261;-77
2023/05/05 09:07:07;;;;;;;13.13;3.27;;;19.70;1.00;;;;;;4422403;28;657853;-74
2023/05/05 09:09:54;;;;;;;7.78;3.03;;;19.70;1.00;;;;;;4437750;28;656724;-77
2023/05/05 09:12:41;;;;;;;12.43;3.40;;;19.70;1.00;;;;;;4411069;28;655453;-75
2023/05/05 09:15:29;;;;;;;6.13;2.73;;;19.60;1.00;;;;;;4440088;28;656968;-76
2023/05/05 09:18:16;;;;;;;6.87;3.03;;;19.90;99.90;;;;;;4414221;28;656282;-77
2023/05/05 09:21:18;;;;;;;5.93;3.27;;;20.10;1.00;;;;;;4356756;28;656368;-72
2023/05/05 09:24:08;;;;;;;10.43;3.33;;;20.10;1.00;;;;;;4261946;28;655563;-71
2023/05/05 09:26:55;;;;;;;7.73;3.47;;;20.30;99.90;;;;;;4282656;28;656613;-73
2023/05/05 09:29:48;;;;;;;6.87;3.30;;;20.40;99.90;;;;;;4374763;28;656855;-75
2023/05/05 09:32:45;;;;;;;5.47;3.07;;;20.50;1.00;;;;;;4392124;28;656903;-73
2023/05/05 09:35:49;;;;;;;4.53;3.13;;;20.60;99.90;;;;;;4416345;28;656326;-74
2023/05/05 09:38:36;;;;;;;8.77;3.13;;;20.60;1.00;;;;;;4398702;28;657360;-77
2023/05/05 09:41:37;;;;;;;10.60;3.70;;;20.90;99.90;;;;;;4442727;28;655907;-76
2023/05/05 09:44:35;;;;;;;7.80;2.77;;;20.70;99.90;;;;;;4412306;28;658517;-76
2023/05/05 09:47:24;;;;;;;6.47;2.90;;;20.80;1.00;;;;;;4391980;28;656803;-75
2023/05/05 09:50:14;;;;;;;5.40;2.90;;;20.90;99.90;;;;;;4413931;28;655492;-77
2023/05/05 09:53:02;;;;;;;9.60;2.70;;;21.10;1.00;;;;;;4420033;28;656276;-75
2023/05/05 09:55:53;;;;;;;6.23;2.33;;;20.90;1.00;;;;;;4438701;28;655824;-76
2023/05/05 09:58:42;;;;;;;4.70;2.47;;;20.90;1.00;;;;;;4393751;28;656211;-76
2023/05/05 10:01:29;;;;;;;4.93;2.80;;;21.20;99.90;;;;;;4433948;28;655815;-74
2023/05/05 10:04:27;;;;;;;12.03;2.77;;;21.10;1.00;;;;;;4417387;28;656692;-74
2023/05/05 10:07:22;;;;;;;7.57;2.50;;;21.20;1.00;;;;;;4415149;28;656477;-72
2023/05/05 10:10:10;;;;;;;5.43;2.77;;;21.50;99.90;;;;;;4411256;28;655249;-77
2023/05/05 10:12:57;;;;;;;6.07;3.17;;;21.70;99.90;;;;;;4409259;28;657021;-76
2023/05/05 10:15:47;;;;;;;5.07;2.13;;;21.60;99.90;;;;;;4438415;28;656533;-73
2023/05/05 10:18:35;;;;;;;7.37;2.70;;;21.80;99.90;;;;;;4420851;28;656778;-73
2023/05/05 10:21:24;;;;;;;4.67;2.47;;;22.10;1.00;;;;;;4433439;28;657677;-76
2023/05/05 10:24:14;;;;;;;6.47;2.70;;;22.20;99.90;;;;;;4421762;28;655704;-75
2023/05/05 10:27:02;;;;;;;5.63;3.00;;;22.20;1.00;;;;;;4421247;28;656458;-76
2023/05/05 10:29:52;;;;;;;5.47;2.37;;;22.00;99.90;;;;;;4443858;28;655399;-74
2023/05/05 10:32:43;;;;;;;5.47;2.50;;;22.00;99.90;;;;;;4412921;28;656914;-77
2023/05/05 10:35:31;;;;;;;7.70;2.37;;;22.40;42.40;;;;;;4418320;28;657369;-74
2023/05/05 10:38:18;;;;;;;9.87;2.70;;;22.10;1.00;;;;;;4428363;28;657108;-76
2023/05/05 10:41:05;;;;;;;6.57;2.67;;;21.70;4.90;;;;;;4419564;28;655455;-72
2023/05/05 10:43:54;;;;;;;7.67;2.90;;;22.10;1.00;;;;;;4435842;28;656711;-74
2023/05/05 10:46:41;;;;;;;7.20;2.73;;;22.10;1.00;;;;;;4414643;28;656558;-75
2023/05/05 10:49:33;;;;;;;5.37;2.27;;;21.90;99.90;;;;;;4440564;28;656759;-75
2023/05/05 10:52:23;;;;;;;5.07;2.47;;;21.60;99.90;;;;;;4397918;28;656607;-73
2023/05/05 10:55:13;;;;;;;5.00;2.50;;;21.70;99.90;;;;;;4417706;28;656182;-73
2023/05/05 10:58:01;;;;;;;5.93;2.50;;;22.20;1.00;;;;;;4429534;28;656429;-74
2023/05/05 11:00:51;;;;;;;11.30;2.43;;;22.30;1.20;;;;;;4443843;28;655926;-75
2023/05/05 11:03:39;;;;;;;6.17;2.20;;;22.20;99.90;;;;;;4408563;28;657574;-72
2023/05/05 11:06:28;;;;;;;8.17;2.87;;;21.80;99.90;;;;;;4422256;28;656512;-75
2023/05/05 11:09:27;;;;;;;6.00;2.47;;;21.50;99.90;;;;;;4423275;28;656709;-72
2023/05/05 11:12:15;;;;;;;3.77;2.30;;;21.10;1.00;;;;;;4408402;28;659735;-75
2023/05/05 11:15:34;;;;;;;6.70;2.93;;;21.70;99.90;;;;;;4418813;28;656569;-74
2023/05/05 11:18:35;;;;;;;4.57;2.50;;;22.20;1.00;;;;;;4421095;28;656667;-75
2023/05/05 11:21:23;;;;;;;6.13;2.40;;;22.80;1.00;;;;;;4420029;28;655614;-75
2023/05/05 11:24:28;;;;;;;9.37;2.70;;;22.80;1.00;;;;;;4419821;28;655960;-72
2023/05/05 11:27:16;;;;;;;6.00;2.80;;;22.50;99.90;;;;;;4397857;28;655710;-74
2023/05/05 11:30:08;;;;;;;4.83;2.70;;;22.20;1.00;;;;;;4443889;28;656940;-75
2023/05/05 11:33:26;;;;;;;6.17;2.70;;;22.70;1.00;;;;;;4408106;28;655465;-74
2023/05/05 11:36:13;;;;;;;4.10;2.50;;;22.90;80.80;;;;;;4417406;28;656005;-74
2023/05/05 11:39:11;;;;;;;5.87;2.87;;;22.80;99.90;;;;;;4419765;28;656338;-74
2023/05/05 11:42:23;;;;;;;3.70;2.20;;;23.00;99.90;;;;;;4409614;28;657097;-77
2023/05/05 11:45:20;;;;;;;5.93;2.40;;;22.90;99.90;;;;;;4397933;28;656811;-75
2023/05/05 11:48:26;;;;;;;7.20;2.53;;;23.10;1.00;;;;;;4391076;28;657148;-74
2023/05/05 11:51:13;;;;;;;3.80;2.40;;;23.20;1.00;;;;;;4417670;28;655508;-76
2023/05/05 11:54:00;;;;;;;6.33;2.20;;;23.20;99.90;;;;;;4425004;28;655503;-74
2023/05/05 11:56:50;;;;;;;4.70;1.93;;;23.40;99.90;;;;;;4446053;28;656887;-77
2023/05/05 11:59:50;;;;;;;4.13;2.60;;;23.50;99.90;;;;;;4413440;28;656751;-77
2023/05/05 12:02:38;;;;;;;6.38;2.70;;;24.00;99.90;;;;;;4417551;28;656664;-77
2023/05/05 12:05:25;;;;;;;5.00;2.42;;;24.10;99.90;;;;;;4425313;28;656504;-73
2023/05/05 12:08:13;;;;;;;3.33;2.55;;;23.70;99.90;;;;;;4446653;28;657326;-76
2023/05/05 12:11:03;;;;;;;3.17;2.40;;;23.70;98.90;;;;;;4423739;28;657233;-75
2023/05/05 12:13:50;;;;;;;7.53;2.60;;;24.10;1.00;;;;;;4422946;28;657473;-75
2023/05/05 12:16:39;;;;;;;5.25;1.90;;;24.00;1.00;;;;;;4438847;28;657045;-77
2023/05/05 12:19:29;;;;;;;3.92;2.13;;;23.80;99.90;;;;;;4417185;28;655451;-77
2023/05/05 12:22:20;;;;;;;3.47;2.45;;;24.10;1.00;;;;;;4409662;28;657746;-77
2023/05/05 12:25:08;;;;;;;4.88;2.20;;;24.30;99.90;;;;;;4424192;28;656244;-77
2023/05/05 12:27:56;;;;;;;5.53;2.40;;;24.60;99.90;;;;;;4421154;28;657831;-75
2023/05/05 12:30:43;;;;;;;7.38;2.45;;;24.50;1.00;;;;;;4442962;28;658125;-76
2023/05/05 12:33:34;;;;;;;4.18;2.30;;;24.30;35.00;;;;;;4423946;28;655416;-73
2023/05/05 12:36:22;;;;;;;4.60;2.08;;;23.80;1.00;;;;;;4422388;28;657238;-74
2023/05/05 12:39:09;;;;;;;4.53;2.60;;;23.60;1.00;;;;;;4440858;28;656245;-73
2023/05/05 12:42:02;;;;;;;4.00;2.10;;;24.10;1.00;;;;;;4423486;28;655841;-75
2023/05/05 12:44:49;;;;;;;4.28;2.13;;;24.20;1.00;;;;;;4419280;28;655991;-76
2023/05/05 12:47:37;;;;;;;5.00;2.30;;;24.00;1.00;;;;;;4423163;28;655463;-76
2023/05/05 12:50:32;;;;;;;3.78;2.03;;;23.60;1.00;;;;;;4445530;28;656198;-74
2023/05/05 12:53:22;;;;;;;10.20;2.20;;;23.90;1.00;;;;;;4418828;28;655591;-76
2023/05/05 12:56:31;;;;;;;4.35;2.35;;;24.30;1.00;;;;;;4411276;28;656887;-76
2023/05/05 12:59:33;;;;;;;6.20;2.10;;;24.40;99.90;;;;;;4418993;28;656029;-75
2023/05/05 13:02:20;;;;;;;3.25;2.40;;;24.70;1.00;;;;;;4403405;28;656700;-74
2023/05/05 13:05:08;;;;;;;2.60;1.92;;;24.60;1.00;;;;;;4445687;28;656522;-76
2023/05/05 13:07:57;;;;;;;5.10;2.08;;;24.50;99.90;;;;;;4424934;28;656403;-76
2023/05/05 13:10:57;;;;;;;5.25;1.98;;;24.70;1.00;;;;;;4442315;28;656926;-79
2023/05/05 13:13:45;;;;;;;3.28;2.00;;;25.00;1.00;;;;;;4416729;28;655765;-78
2023/05/05 13:16:32;;;;;;;5.03;2.00;;;24.70;99.90;;;;;;4414043;28;656260;-78
2023/05/05 13:19:19;;;;;;;8.63;2.00;;;24.90;93.50;;;;;;4439386;28;656314;-77
2023/05/05 13:22:07;;;;;;;1.90;1.70;;;24.80;99.90;;;;;;4418343;28;656209;-78
2023/05/05 13:24:55;;;;;;;4.10;2.10;;;24.90;99.90;;;;;;4438916;28;655614;-77
2023/05/05 13:27:42;;;;;;;4.78;2.08;;;24.90;99.90;;;;;;4419774;28;657194;-77
2023/05/05 13:30:29;;;;;;;3.67;2.28;;;24.00;1.00;;;;;;4434863;28;656784;-76
2023/05/05 13:33:17;;;;;;;6.50;2.10;;;24.10;99.90;;;;;;4410379;28;656195;-79
2023/05/05 13:36:04;;;;;;;2.28;1.67;;;24.00;99.90;;;;;;4437370;28;657455;-77
2023/05/05 13:38:52;;;;;;;3.60;1.90;;;24.40;99.90;;;;;;4418714;28;657790;-75
2023/05/05 13:41:40;;;;;;;5.47;2.13;;;24.70;1.00;;;;;;4441865;28;656503;-77
2023/05/05 13:44:28;;;;;;;5.15;2.13;;;24.90;1.00;;;;;;4417733;28;656359;-76
2023/05/05 13:47:15;;;;;;;4.32;2.22;;;24.20;99.90;;;;;;4431296;28;655364;-73
2023/05/05 13:50:02;;;;;;;3.42;2.30;;;24.40;1.00;;;;;;4442639;28;657290;-76
2023/05/05 13:52:50;;;;;;;3.38;2.22;;;24.80;80.10;;;;;;4426956;28;655943;-74
2023/05/05 13:55:38;;;;;;;3.65;2.30;;;24.40;99.90;;;;;;4434450;28;658184;-76
2023/05/05 13:58:27;;;;;;;2.90;1.90;;;24.30;1.00;;;;;;4432385;28;656735;-74
2023/05/05 14:01:14;;;;;;;3.17;2.20;;;24.60;1.00;;;;;;4442839;28;655907;-78
2023/05/05 14:04:01;;;;;;;2.75;1.90;;;25.00;99.90;;;;;;4423253;28;655622;-75
2023/05/05 14:06:48;;;;;;;3.55;1.88;;;24.90;99.90;;;;;;4443501;28;657255;-74
2023/05/05 14:09:35;;;;;;;6.57;2.00;;;24.70;99.90;;;;;;4419486;28;656437;-73
2023/05/05 14:12:23;;;;;;;3.15;1.95;;;24.90;99.30;;;;;;4436207;28;656616;-75
2023/05/05 14:15:12;;;;;;;2.75;1.95;;;25.40;1.00;;;;;;4422260;28;656913;-74
2023/05/05 14:17:59;;;;;;;3.10;1.83;;;25.60;1.00;;;;;;4442279;28;656354;-76
2023/05/05 14:20:46;;;;;;;3.55;2.00;;;25.60;1.00;;;;;;4420285;28;655979;-77
2023/05/05 14:23:33;;;;;;;5.77;2.00;;;25.80;1.00;;;;;;4439501;28;656236;-77
2023/05/05 14:26:20;;;;;;;2.75;1.90;;;25.90;3.40;;;;;;4419593;28;655581;-74
2023/05/05 14:29:08;;;;;;;3.17;2.20;;;25.40;99.90;;;;;;4432802;28;657153;-77
2023/05/05 14:31:57;;;;;;;2.78;2.15;;;25.10;99.90;;;;;;4431007;28;657559;-75
2023/05/05 14:34:44;;;;;;;7.57;2.25;;;24.90;99.90;;;;;;4438546;28;656566;-77